Urbain, Illinois
Current Conditions -  °F | °C
As of 8:52 AM on Tuesday 21 Oct 2014 (Local Time) from KMDH Reporting Station
Clear Clear  
Wind Chill: 53°   Ceiling: Unl
Heat Index: 53°   Visibility: NA
Dew Point: 47°   Wind: 5mph
Humidity: 80%   Direction: 330°NNW
Pressure: 30.1"   Gusts: NA
Location:  37.9667°N, 89.1298°W
Report Text: KMDH 211352Z 33004KT CLR 12/08 A3010 RMK AO2 SLP191 T01170083 $
Loading
Personal Weather Stations






























Interactive Weather Map
Tropical Storm Tracking
New forecast layout! Learn more

10-Day Weather Forecast

Advertisements
Track Severe Weather on mobile